• Join FlightAware (Why Join?)
  • Login
  • US Flag 
12:20AM EDT


 

Airport Tracker/Info


-or-


 

Live Flight TrackerFlight Track Log ✈ AWE1253 ✈ 25-Apr-2013 ✈ KPHL - KTPA

Flight Track Log - Related Links

Times and Time Zones

All times are in EDT time to prevent confusion due to time zone crossing. See the AWE1253 flight status page for this flight to view local times or setup timezone preferences in your user account.

Time Position Orientation Groundspeed Altitude Reporting Facility
EDT Latitude Longitude Course Direction KTS MPH feet Rate Location/Type
08:43PM 39.8667 -75.2833 233° Southwest 156 180 800  Level Philadelphia TRACON
08:43PM 39.8500 -75.3167 237° Southwest 205 236 2,000 2,340 Climbing Philadelphia TRACON
08:44PM 39.8333 -75.4000 255° West 231 266 4,800 2,760 Climbing Philadelphia TRACON
08:47PM 39.7283 -75.9567 226° Southwest  Level FlightAware Approximate
08:47PM 39.8331 -75.6044 270° West 272 313 10,900  Level New York Center
08:48PM 39.6519 -76.0759 233° Southwest  Level FlightAware Approximate
08:48PM 39.8367 -75.7208 272° West 299 344 11,900  Level New York Center
08:49PM 39.8083 -75.8433 253° West 356 410 14,200 2,280 Climbing New York Center
08:50PM 39.7525 -75.9336 231° Southwest 356 410 16,600 2,100 Climbing New York Center
08:51PM 39.6333 -76.1222 231° Southwest 378 435 20,100 1,860 Climbing Washington Center
08:52PM 39.5639 -76.2322 231° Southwest 390 449 21,800 1,740 Climbing Washington Center
08:53PM 39.4925 -76.3417 230° Southwest 396 456 23,600 1,680 Climbing Washington Center
08:54PM 39.4231 -76.4511 231° Southwest 401 461 25,200 1,920 Climbing Washington Center
08:55PM 39.3514 -76.5550 228° Southwest 396 456 27,500 1,920 Climbing Washington Center
08:56PM 39.2858 -76.6614 231° Southwest 396 456 29,100 1,260 Climbing Washington Center
08:57PM 39.2183 -76.7650 230° Southwest 391 450 30,100 480 Climbing Washington Center
08:58PM 39.1525 -76.8683 231° Southwest 391 450 30,100  Level Washington Center
08:59PM 39.0867 -76.9742 231° Southwest 391 450 30,100  Level Washington Center
09:00PM 39.0128 -77.0717 226° Southwest 386 444 30,100  Level Washington Center
09:01PM 38.9322 -77.1633 222° Southwest 386 444 30,100  Level Washington Center
09:02PM 38.8497 -77.2522 220° Southwest 391 450 30,100  Level Washington Center
09:03PM 38.7653 -77.3408 219° Southwest 391 450 30,100  Level Washington Center
09:04PM 38.6847 -77.4319 221° Southwest 391 450 30,100  Level Washington Center
09:05PM 38.6019 -77.5203 220° Southwest 391 450 30,100  Level Washington Center
09:06PM 38.5192 -77.6111 221° Southwest 383 441 30,100  Level Washington Center
09:07PM 38.4297 -77.7094 221° Southwest 388 447 30,100  Level Washington Center
09:08PM 38.3469 -77.7969 220° Southwest 388 447 30,100  Level Washington Center
09:09PM 38.2639 -77.8872 220° Southwest 388 447 30,100  Level Washington Center
09:10PM 38.1831 -77.9744 220° Southwest 388 447 30,100  Level Washington Center
09:11PM 38.1000 -78.0614 219° Southwest 388 447 30,100  Level Washington Center
09:12PM 38.0189 -78.1511 221° Southwest 388 447 30,100  Level Washington Center
09:13PM 37.9442 -78.2250 218° Southwest 383 441 30,100  Level Washington Center
09:14PM 37.8589 -78.3036 216° Southwest 388 447 30,100  Level Washington Center
09:15PM 37.7736 -78.3844 217° Southwest 388 447 30,100  Level Washington Center
09:16PM 37.6861 -78.4678 217° Southwest 388 447 30,100  Level Washington Center
09:17PM 37.6008 -78.5486 217° Southwest 393 452 30,100  Level Washington Center
09:18PM 37.5047 -78.6364 216° Southwest 398 458 30,100  Level Washington Center
09:19PM 37.4192 -78.7167 217° Southwest 398 458 30,100  Level Washington Center
09:20PM 37.3317 -78.7994 217° Southwest 398 458 30,100  Level Washington Center
09:21PM 37.2417 -78.8792 215° Southwest 398 458 30,100  Level Washington Center
09:22PM 37.1603 -78.9564 217° Southwest 404 465 30,100  Level Washington Center
09:23PM 37.0725 -79.0383 217° Southwest 404 465 30,100  Level Washington Center
09:24PM 36.9825 -79.1228 217° Southwest 404 465 30,100  Level Washington Center
09:25PM 36.8922 -79.2044 216° Southwest 404 465 30,100  Level Washington Center
09:26PM 36.8044 -79.2858 217° Southwest 399 459 30,100  Level Washington Center
09:27PM 36.7056 -79.3769 216° Southwest 399 459 30,100  Level Washington Center
09:28PM 36.6153 -79.4606 217° Southwest 399 459 30,100  Level Washington Center
09:29PM 36.5250 -79.5414 216° Southwest 399 459 30,100  Level Washington Center
09:31PM 36.3647 -79.6842 216° Southwest 413 475 30,100  Level Atlanta Center
09:32PM 36.2758 -79.7661 217° Southwest 413 475 30,100  Level Atlanta Center
09:33PM 36.1847 -79.8456 215° Southwest 413 475 30,100  Level Atlanta Center
09:34PM 36.0897 -79.9353 217° Southwest 413 475 30,100  Level Atlanta Center
09:35PM 35.9856 -80.0022 207° Southwest 413 475 30,100  Level Atlanta Center
09:36PM 35.8811 -80.0561 203° Southwest 413 475 30,100  Level Atlanta Center
09:37PM 35.7722 -80.1100 202° Southwest 421 484 30,100  Level Atlanta Center
09:38PM 35.6736 -80.1581 202° Southwest 426 490 30,100  Level Atlanta Center
09:39PM 35.5650 -80.2194 205° Southwest 437 503 30,100  Level Atlanta Center
09:40PM 35.4539 -80.2756 202° Southwest 432 497 30,100  Level Atlanta Center
09:41PM 35.3450 -80.3264 201° Southwest 432 497 30,100  Level Atlanta Center
09:42PM 35.2361 -80.3822 203° Southwest 432 497 30,100  Level Atlanta Center
09:45PM 34.9739 -80.5139 202° Southwest 434 499 30,100  Level Jacksonville Center
09:46PM 34.8603 -80.5675 201° Southwest 434 499 30,100 -60 Level Jacksonville Center
09:47PM 34.7569 -80.6233 204° Southwest 421 484 30,000 -60 Descending Jacksonville Center
09:48PM 34.6453 -80.6744 201° Southwest 421 484 30,000  Level Jacksonville Center
09:49PM 34.5189 -80.7381 203° Southwest 446 513 30,100  Climbing Jacksonville Center
09:50PM 34.4053 -80.7936 202° Southwest 443 510 30,100  Level Jacksonville Center
09:51PM 34.2936 -80.8517 203° Southwest 428 493 30,100 -60 Level Jacksonville Center
09:52PM 34.2003 -80.8864 197° South 423 487 30,000 -60 Descending Jacksonville Center
09:53PM 34.0906 -80.9417 203° Southwest 423 487 30,000  Level Jacksonville Center
09:54PM 33.9808 -80.9992 203° Southwest 428 493 30,000  Level Jacksonville Center
09:55PM 33.8647 -81.0492 200° South 435 501 30,100  Climbing Jacksonville Center
09:56PM 33.7569 -81.1039 203° Southwest 435 501 30,100 -60 Level Jacksonville Center
09:57PM 33.6450 -81.1611 203° Southwest 435 501 30,000 -60 Descending Jacksonville Center
09:58PM 33.5331 -81.2156 202° Southwest 435 501 30,000  Level Jacksonville Center
09:59PM 33.4211 -81.2700 202° Southwest 435 501 30,000  Level Jacksonville Center
10:00PM 33.3069 -81.3242 202° Southwest 435 501 30,000  Level Jacksonville Center
10:01PM 33.1928 -81.3808 203° Southwest 435 501 30,000  Level Jacksonville Center
10:02PM 33.0831 -81.4347 202° Southwest 435 501 30,000  Level Jacksonville Center
10:03PM 32.9708 -81.4911 203° Southwest 435 501 30,000  Level Jacksonville Center
10:04PM 32.8567 -81.5447 202° Southwest 435 501 30,000  Level Jacksonville Center
10:05PM 32.7467 -81.5983 202° Southwest 435 501 30,000  Level Jacksonville Center
10:06PM 32.6344 -81.6542 203° Southwest 428 493 30,100  Climbing Jacksonville Center
10:07PM 32.5139 -81.7125 202° Southwest 436 502 30,100  Level Jacksonville Center
10:08PM 32.3911 -81.7461 193° South 436 502 30,100  Level Jacksonville Center
10:09PM 32.2825 -81.7672 189° South 448 516 30,100  Level Jacksonville Center
10:10PM 32.1450 -81.7983 191° South 448 516 30,100  Level Jacksonville Center
10:11PM 32.0347 -81.8242 191° South 448 516 30,100  Level Jacksonville Center
10:12PM 31.8992 -81.8525 190° South 448 516 30,100  Level Jacksonville Center
10:13PM 31.7742 -81.8833 192° South 448 516 30,100  Level Jacksonville Center
10:14PM 31.6658 -81.9039 189° South 454 522 30,100  Level Jacksonville Center
10:15PM 31.5283 -81.9347 191° South 449 517 30,100  Level Jacksonville Center
10:16PM 31.4072 -81.9628 191° South 449 517 30,100 -60 Level Jacksonville Center
10:17PM 31.2928 -81.9931 193° South 454 522 30,000 -60 Descending Jacksonville Center
10:18PM 31.1697 -82.0186 190° South 454 522 30,000  Level Jacksonville Center
10:19PM 31.0467 -82.0439 190° South 454 522 30,000  Level Jacksonville Center
10:20PM 30.9236 -82.0717 191° South 454 522 30,000  Level Jacksonville Center
10:21PM 30.8006 -82.0994 191° South 454 522 30,000  Level Jacksonville Center
10:22PM 30.6608 -82.1294 190° South 454 522 30,000  Level Jacksonville Center
10:23PM 30.5358 -82.1569 191° South 459 528 30,000  Level Jacksonville Center
10:24PM 30.4231 -82.1772 189° South 459 528 30,100  Climbing Jacksonville Center
10:25PM 30.2939 -82.2044 190° South 469 540 30,000 -60 Descending Jacksonville Center
10:26PM 30.1667 -82.2319 191° South 469 540 30,000  Level Jacksonville Center
10:27PM 30.0394 -82.2592 190° South 469 540 30,000  Level Jacksonville Center
10:28PM 29.9019 -82.2936 192° South 469 540 30,000  Level Jacksonville Center
10:29PM 29.7747 -82.3206 190° South 469 540 30,100 -300 Climbing Jacksonville Center
10:30PM 29.6619 -82.3406 189° South 469 540 29,400 -1,500 Descending Jacksonville Center
10:31PM 29.5325 -82.3531 185° South 469 540 27,100 -1,740 Descending Jacksonville Center
10:32PM 29.4031 -82.3372 174° South 464 534 26,000 -1,080 Descending Jacksonville Center
10:33PM 29.2736 -82.3211 174° South 464 534 25,000 -1,920 Descending Jacksonville Center
10:34PM 29.1442 -82.3053 174° South 464 534 22,200 -2,760 Descending Jacksonville Center
10:35PM 29.0208 -82.2919 175° South 464 534 19,500 -2,700 Descending Jacksonville Center
10:36PM 28.8914 -82.2758 174° South 452 520 16,800 -2,400 Descending Jacksonville Center
10:37PM 28.6833 -82.2500 174° South 396 456 13,100 -1,980 Descending Tampa TRACON
10:38PM 28.5667 -82.2667 187° South 394 453 11,300 -960 Descending Tampa TRACON
10:39PM 28.4667 -82.3000 196° South 385 443 11,100 -120 Descending Tampa TRACON
10:41PM 28.3500 -82.3167 187° South 383 441 11,100 -120 Level Tampa TRACON
10:42PM 28.2500 -82.3500 196° South 373 429 10,900 -600 Descending Tampa TRACON
10:43PM 28.1500 -82.3833 196° South 312 359 9,800 -1,200 Descending Tampa TRACON
10:44PM 28.0667 -82.4000 190° South 299 344 8,400 -1,500 Descending Tampa TRACON
10:45PM 28.0000 -82.4167 192° South 291 335 7,100 -1,440 Descending Tampa TRACON
10:46PM 27.9167 -82.4167 180° South 279 321 5,700 -1,500 Descending Tampa TRACON
10:46PM 27.8500 -82.4167 180° South 270 311 4,300 -1,200 Descending Tampa TRACON
10:48PM 27.8167 -82.4833 241° Southwest 256 295 3,300 -960 Descending Tampa TRACON